sensor_id;sensor_type;location;lat;lon;timestamp;pressure;altitude;pressure_sealevel;temperature;humidity
39051;BME280;24805;55.852;37.644;2023-02-28T00:03:40;99817.66;;;-5.44;61.91
39051;BME280;24805;55.852;37.644;2023-02-28T00:08:42;99812.63;;;-5.47;61.33
39051;BME280;24805;55.852;37.644;2023-02-28T00:13:47;99817.88;;;-5.49;61.54
39051;BME280;24805;55.852;37.644;2023-02-28T00:18:50;99797.31;;;-5.52;61.79
39051;BME280;24805;55.852;37.644;2023-02-28T00:23:52;99770.84;;;-5.76;62.14
39051;BME280;24805;55.852;37.644;2023-02-28T00:28:54;99789.94;;;-5.60;62.00
39051;BME280;24805;55.852;37.644;2023-02-28T00:33:57;99786.66;;;-5.63;60.97
39051;BME280;24805;55.852;37.644;2023-02-28T00:38:59;99792.72;;;-5.64;61.24
39051;BME280;24805;55.852;37.644;2023-02-28T00:44:02;99774.41;;;-5.78;61.75
39051;BME280;24805;55.852;37.644;2023-02-28T00:49:06;99785.03;;;-5.84;61.84
39051;BME280;24805;55.852;37.644;2023-02-28T00:54:10;99766.59;;;-5.96;62.13
39051;BME280;24805;55.852;37.644;2023-02-28T00:59:16;99751.94;;;-5.95;61.51
39051;BME280;24805;55.852;37.644;2023-02-28T01:04:18;99748.50;;;-5.96;61.38
39051;BME280;24805;55.852;37.644;2023-02-28T01:09:21;99733.31;;;-6.02;61.88
39051;BME280;24805;55.852;37.644;2023-02-28T01:14:23;99722.66;;;-6.14;61.82
39051;BME280;24805;55.852;37.644;2023-02-28T01:19:25;99700.03;;;-6.28;62.23
39051;BME280;24805;55.852;37.644;2023-02-28T01:24:27;99701.78;;;-6.29;62.72
39051;BME280;24805;55.852;37.644;2023-02-28T01:29:29;99677.91;;;-6.34;62.86
39051;BME280;24805;55.852;37.644;2023-02-28T01:34:31;99689.06;;;-6.33;62.35
39051;BME280;24805;55.852;37.644;2023-02-28T01:39:34;99668.78;;;-6.41;62.46
39051;BME280;24805;55.852;37.644;2023-02-28T01:45:03;99663.50;;;-6.39;63.22
39051;BME280;24805;55.852;37.644;2023-02-28T01:50:11;99648.97;;;-6.40;63.11
39051;BME280;24805;55.852;37.644;2023-02-28T01:55:16;99663.31;;;-6.35;63.21
39051;BME280;24805;55.852;37.644;2023-02-28T02:00:23;99645.94;;;-6.31;62.05
39051;BME280;24805;55.852;37.644;2023-02-28T02:05:28;99636.59;;;-6.34;62.76
39051;BME280;24805;55.852;37.644;2023-02-28T02:10:36;99633.03;;;-6.31;62.57
39051;BME280;24805;55.852;37.644;2023-02-28T02:16:00;99624.59;;;-6.35;62.88
39051;BME280;24805;55.852;37.644;2023-02-28T02:31:54;99603.59;;;-6.27;61.76
39051;BME280;24805;55.852;37.644;2023-02-28T02:37:17;99596.97;;;-6.33;62.74
39051;BME280;24805;55.852;37.644;2023-02-28T02:47:39;99582.25;;;-6.31;62.67
39051;BME280;24805;55.852;37.644;2023-02-28T02:52:45;99566.47;;;-6.24;62.77
39051;BME280;24805;55.852;37.644;2023-02-28T02:57:58;99564.72;;;-6.24;63.04
39051;BME280;24805;55.852;37.644;2023-02-28T03:03:01;99555.31;;;-6.25;63.03
39051;BME280;24805;55.852;37.644;2023-02-28T03:08:04;99515.91;;;-6.47;63.75
39051;BME280;24805;55.852;37.644;2023-02-28T03:23:41;99515.03;;;-6.29;62.82
39051;BME280;24805;55.852;37.644;2023-02-28T03:29:05;99510.38;;;-6.21;63.12
39051;BME280;24805;55.852;37.644;2023-02-28T03:34:20;99514.78;;;-6.23;62.53
39051;BME280;24805;55.852;37.644;2023-02-28T03:39:31;99495.94;;;-6.25;62.63
39051;BME280;24805;55.852;37.644;2023-02-28T03:44:43;99490.84;;;-6.27;63.36
39051;BME280;24805;55.852;37.644;2023-02-28T03:49:51;99475.34;;;-6.27;62.37
39051;BME280;24805;55.852;37.644;2023-02-28T03:54:59;99462.56;;;-6.30;63.49
39051;BME280;24805;55.852;37.644;2023-02-28T04:00:12;99462.44;;;-6.27;62.82
39051;BME280;24805;55.852;37.644;2023-02-28T04:05:15;99452.47;;;-6.34;62.32
39051;BME280;24805;55.852;37.644;2023-02-28T04:10:18;99439.56;;;-6.34;62.39
39051;BME280;24805;55.852;37.644;2023-02-28T04:15:20;99439.75;;;-6.39;62.95
39051;BME280;24805;55.852;37.644;2023-02-28T04:20:24;99443.94;;;-6.36;63.19
39051;BME280;24805;55.852;37.644;2023-02-28T04:25:26;99421.41;;;-6.33;62.83
39051;BME280;24805;55.852;37.644;2023-02-28T04:30:28;99407.81;;;-6.36;62.94
39051;BME280;24805;55.852;37.644;2023-02-28T04:35:31;99403.25;;;-6.31;62.77
39051;BME280;24805;55.852;37.644;2023-02-28T04:40:33;99392.44;;;-6.20;61.90
39051;BME280;24805;55.852;37.644;2023-02-28T04:45:37;99378.66;;;-6.04;62.04
39051;BME280;24805;55.852;37.644;2023-02-28T04:50:39;99378.06;;;-5.76;62.36
39051;BME280;24805;55.852;37.644;2023-02-28T04:55:41;99373.59;;;-5.57;60.73
39051;BME280;24805;55.852;37.644;2023-02-28T05:00:43;99349.53;;;-4.94;60.89
39051;BME280;24805;55.852;37.644;2023-02-28T05:05:45;99339.63;;;-4.56;59.17
39051;BME280;24805;55.852;37.644;2023-02-28T05:10:47;99334.66;;;-4.15;58.00
39051;BME280;24805;55.852;37.644;2023-02-28T05:15:49;99341.47;;;-3.56;57.09
39051;BME280;24805;55.852;37.644;2023-02-28T05:20:51;99313.25;;;-3.19;55.33
39051;BME280;24805;55.852;37.644;2023-02-28T05:25:53;99308.72;;;-2.89;54.58
39051;BME280;24805;55.852;37.644;2023-02-28T05:30:55;99260.69;;;-2.82;53.50
39051;BME280;24805;55.852;37.644;2023-02-28T05:35:58;99259.91;;;-2.44;52.38
39051;BME280;24805;55.852;37.644;2023-02-28T05:41:00;99254.06;;;-3.00;51.46
39051;BME280;24805;55.852;37.644;2023-02-28T05:46:07;99247.81;;;-2.58;51.96
39051;BME280;24805;55.852;37.644;2023-02-28T05:51:09;99239.75;;;-1.90;50.75
39051;BME280;24805;55.852;37.644;2023-02-28T05:56:11;99216.00;;;-1.73;48.57
39051;BME280;24805;55.852;37.644;2023-02-28T06:01:34;99217.03;;;-1.62;49.64
39051;BME280;24805;55.852;37.644;2023-02-28T06:06:37;99166.81;;;-1.52;48.53
39051;BME280;24805;55.852;37.644;2023-02-28T06:11:40;99175.06;;;-1.10;47.53
39051;BME280;24805;55.852;37.644;2023-02-28T06:16:42;99189.94;;;-0.20;47.64
39051;BME280;24805;55.852;37.644;2023-02-28T06:21:44;99156.31;;;-0.23;45.32
39051;BME280;24805;55.852;37.644;2023-02-28T06:26:47;99142.84;;;-0.85;46.09
39051;BME280;24805;55.852;37.644;2023-02-28T06:31:49;99168.16;;;-1.22;46.67
39051;BME280;24805;55.852;37.644;2023-02-28T06:36:51;99149.97;;;-1.59;47.73
39051;BME280;24805;55.852;37.644;2023-02-28T06:41:54;99129.31;;;-1.60;47.47
39051;BME280;24805;55.852;37.644;2023-02-28T06:46:57;99122.25;;;-1.71;47.81
39051;BME280;24805;55.852;37.644;2023-02-28T06:51:59;99100.59;;;-1.95;48.21
39051;BME280;24805;55.852;37.644;2023-02-28T06:57:01;99079.97;;;-1.86;48.62
39051;BME280;24805;55.852;37.644;2023-02-28T07:02:03;99063.31;;;-2.07;48.78
39051;BME280;24805;55.852;37.644;2023-02-28T07:07:08;99030.69;;;-2.11;49.62
39051;BME280;24805;55.852;37.644;2023-02-28T07:12:10;99059.63;;;-2.28;49.83
39051;BME280;24805;55.852;37.644;2023-02-28T07:17:12;99023.97;;;-2.26;50.40
39051;BME280;24805;55.852;37.644;2023-02-28T07:22:15;99047.72;;;-2.07;50.22
39051;BME280;24805;55.852;37.644;2023-02-28T07:27:17;99041.47;;;-2.04;50.31
39051;BME280;24805;55.852;37.644;2023-02-28T07:32:25;99038.00;;;-1.92;50.59
39051;BME280;24805;55.852;37.644;2023-02-28T07:37:27;99032.38;;;-1.75;50.94
39051;BME280;24805;55.852;37.644;2023-02-28T07:42:29;99014.72;;;-1.59;50.45
39051;BME280;24805;55.852;37.644;2023-02-28T07:47:32;99013.59;;;-1.32;50.36
39051;BME280;24805;55.852;37.644;2023-02-28T07:52:34;99011.22;;;-1.35;50.74
39051;BME280;24805;55.852;37.644;2023-02-28T07:57:37;98981.78;;;-1.36;50.74
39051;BME280;24805;55.852;37.644;2023-02-28T08:02:39;98997.50;;;-1.49;51.18
39051;BME280;24805;55.852;37.644;2023-02-28T08:07:42;98995.38;;;-1.44;50.71
39051;BME280;24805;55.852;37.644;2023-02-28T08:12:44;98970.31;;;-1.45;51.33
39051;BME280;24805;55.852;37.644;2023-02-28T08:17:46;98931.78;;;-1.75;51.88
39051;BME280;24805;55.852;37.644;2023-02-28T08:22:49;98943.41;;;-1.56;51.94
39051;BME280;24805;55.852;37.644;2023-02-28T08:27:51;98940.59;;;-1.53;52.10
39051;BME280;24805;55.852;37.644;2023-02-28T08:32:54;98989.06;;;-1.52;52.73
39051;BME280;24805;55.852;37.644;2023-02-28T08:37:57;98961.28;;;-1.52;52.64
39051;BME280;24805;55.852;37.644;2023-02-28T08:42:59;98992.41;;;-1.39;53.37
39051;BME280;24805;55.852;37.644;2023-02-28T08:48:02;98978.34;;;-1.48;53.55
39051;BME280;24805;55.852;37.644;2023-02-28T08:53:04;98966.84;;;-1.56;54.06
39051;BME280;24805;55.852;37.644;2023-02-28T08:58:06;98966.13;;;-1.58;54.54
39051;BME280;24805;55.852;37.644;2023-02-28T09:03:08;98947.22;;;-1.60;54.37
39051;BME280;24805;55.852;37.644;2023-02-28T09:08:10;98930.34;;;-1.32;54.37
39051;BME280;24805;55.852;37.644;2023-02-28T09:13:12;98931.41;;;-1.24;54.75
39051;BME280;24805;55.852;37.644;2023-02-28T09:18:15;98900.06;;;-1.11;54.54
39051;BME280;24805;55.852;37.644;2023-02-28T09:23:17;98919.81;;;-0.97;54.15
39051;BME280;24805;55.852;37.644;2023-02-28T09:28:20;98923.22;;;-0.97;54.74
39051;BME280;24805;55.852;37.644;2023-02-28T09:33:22;98927.13;;;-0.91;54.82
39051;BME280;24805;55.852;37.644;2023-02-28T09:38:25;98903.44;;;-0.77;54.13
39051;BME280;24805;55.852;37.644;2023-02-28T09:43:35;98866.28;;;-0.79;54.57
39051;BME280;24805;55.852;37.644;2023-02-28T09:48:41;98885.84;;;-0.85;54.77
39051;BME280;24805;55.852;37.644;2023-02-28T09:53:46;98889.22;;;-0.62;54.44
39051;BME280;24805;55.852;37.644;2023-02-28T09:59:01;98867.28;;;-0.59;54.77
39051;BME280;24805;55.852;37.644;2023-02-28T10:09:32;98849.22;;;-0.72;55.00
39051;BME280;24805;55.852;37.644;2023-02-28T10:14:36;98845.44;;;-0.79;55.29
39051;BME280;24805;55.852;37.644;2023-02-28T10:20:01;98820.69;;;-0.74;55.06
39051;BME280;24805;55.852;37.644;2023-02-28T10:25:22;98833.50;;;-0.82;55.48
39051;BME280;24805;55.852;37.644;2023-02-28T10:30:25;98830.63;;;-0.67;55.42
39051;BME280;24805;55.852;37.644;2023-02-28T10:35:27;98820.56;;;-0.72;55.83
39051;BME280;24805;55.852;37.644;2023-02-28T10:40:33;98818.53;;;-0.68;56.14
39051;BME280;24805;55.852;37.644;2023-02-28T10:45:37;98806.34;;;-0.68;56.04
39051;BME280;24805;55.852;37.644;2023-02-28T10:51:00;98766.13;;;-0.54;56.10
39051;BME280;24805;55.852;37.644;2023-02-28T11:01:13;98777.06;;;-0.60;56.19
39051;BME280;24805;55.852;37.644;2023-02-28T11:06:29;98773.50;;;-0.59;56.70
39051;BME280;24805;55.852;37.644;2023-02-28T11:11:43;98781.19;;;-0.58;56.86
39051;BME280;24805;55.852;37.644;2023-02-28T11:16:45;98757.31;;;-0.63;57.57
39051;BME280;24805;55.852;37.644;2023-02-28T11:21:53;98765.88;;;-0.51;57.45
39051;BME280;24805;55.852;37.644;2023-02-28T11:26:56;98758.69;;;-0.38;58.00
39051;BME280;24805;55.852;37.644;2023-02-28T11:37:08;98718.56;;;-0.05;57.43
39051;BME280;24805;55.852;37.644;2023-02-28T11:47:48;98723.94;;;-0.27;59.38
39051;BME280;24805;55.852;37.644;2023-02-28T11:53:10;98725.63;;;-0.17;60.09
39051;BME280;24805;55.852;37.644;2023-02-28T12:03:58;98714.44;;;-0.08;59.88
39051;BME280;24805;55.852;37.644;2023-02-28T12:31:16;98676.03;;;-0.06;60.14
39051;BME280;24805;55.852;37.644;2023-02-28T12:36:20;98670.78;;;-0.36;61.38
39051;BME280;24805;55.852;37.644;2023-02-28T12:41:42;98646.34;;;-0.45;61.46
39051;BME280;24805;55.852;37.644;2023-02-28T12:46:50;98655.59;;;-0.31;62.13
39051;BME280;24805;55.852;37.644;2023-02-28T12:51:53;98627.25;;;-0.24;61.76
39051;BME280;24805;55.852;37.644;2023-02-28T12:57:18;98635.22;;;-0.16;61.17
39051;BME280;24805;55.852;37.644;2023-02-28T13:13:15;98611.03;;;-0.28;62.54
39051;BME280;24805;55.852;37.644;2023-02-28T13:18:36;98609.13;;;-0.16;62.02
39051;BME280;24805;55.852;37.644;2023-02-28T13:34:19;98581.56;;;-0.19;62.70
39051;BME280;24805;55.852;37.644;2023-02-28T13:55:37;98584.06;;;0.02;62.25
39051;BME280;24805;55.852;37.644;2023-02-28T14:01:00;98574.78;;;0.09;62.26
39051;BME280;24805;55.852;37.644;2023-02-28T14:11:35;98583.16;;;0.22;61.90
39051;BME280;24805;55.852;37.644;2023-02-28T14:16:41;98568.19;;;0.15;62.66
39051;BME280;24805;55.852;37.644;2023-02-28T14:27:26;98556.66;;;0.27;62.63
39051;BME280;24805;55.852;37.644;2023-02-28T14:38:18;98533.31;;;0.25;63.28
39051;BME280;24805;55.852;37.644;2023-02-28T14:43:25;98531.41;;;0.27;63.06
39051;BME280;24805;55.852;37.644;2023-02-28T14:48:28;98513.97;;;0.28;63.34
39051;BME280;24805;55.852;37.644;2023-02-28T14:53:35;98526.47;;;0.34;63.41
39051;BME280;24805;55.852;37.644;2023-02-28T14:58:38;98521.53;;;0.31;63.46
39051;BME280;24805;55.852;37.644;2023-02-28T15:03:40;98532.25;;;0.38;63.44
39051;BME280;24805;55.852;37.644;2023-02-28T15:08:44;98532.63;;;0.43;63.21
39051;BME280;24805;55.852;37.644;2023-02-28T15:13:49;98527.69;;;0.49;62.82
39051;BME280;24805;55.852;37.644;2023-02-28T15:29:30;98508.47;;;0.60;63.33
39051;BME280;24805;55.852;37.644;2023-02-28T15:34:43;98496.53;;;0.57;63.49
39051;BME280;24805;55.852;37.644;2023-02-28T15:39:46;98499.28;;;0.56;63.51
39051;BME280;24805;55.852;37.644;2023-02-28T15:44:49;98507.22;;;0.64;63.70
39051;BME280;24805;55.852;37.644;2023-02-28T15:49:54;98498.28;;;0.66;63.96
39051;BME280;24805;55.852;37.644;2023-02-28T15:54:57;98509.41;;;0.68;63.85
39051;BME280;24805;55.852;37.644;2023-02-28T16:00:02;98497.88;;;0.71;63.93
39051;BME280;24805;55.852;37.644;2023-02-28T16:05:23;98498.94;;;0.88;63.97
39051;BME280;24805;55.852;37.644;2023-02-28T16:10:35;98489.72;;;0.84;64.04
39051;BME280;24805;55.852;37.644;2023-02-28T16:15:38;98494.41;;;0.90;64.23
39051;BME280;24805;55.852;37.644;2023-02-28T16:20:44;98476.91;;;1.00;63.94
39051;BME280;24805;55.852;37.644;2023-02-28T16:25:46;98481.56;;;1.06;64.13
39051;BME280;24805;55.852;37.644;2023-02-28T16:30:51;98481.63;;;1.24;63.92
39051;BME280;24805;55.852;37.644;2023-02-28T16:35:53;98477.06;;;1.26;64.01
39051;BME280;24805;55.852;37.644;2023-02-28T16:40:58;98474.03;;;1.30;64.07
39051;BME280;24805;55.852;37.644;2023-02-28T16:46:01;98472.00;;;1.24;64.13
39051;BME280;24805;55.852;37.644;2023-02-28T16:51:06;98475.84;;;1.20;64.43
39051;BME280;24805;55.852;37.644;2023-02-28T16:56:28;98457.25;;;1.33;63.97
39051;BME280;24805;55.852;37.644;2023-02-28T17:01:32;98450.88;;;1.18;64.26
39051;BME280;24805;55.852;37.644;2023-02-28T17:06:35;98440.03;;;1.13;64.23
39051;BME280;24805;55.852;37.644;2023-02-28T17:11:37;98440.03;;;1.03;63.72
39051;BME280;24805;55.852;37.644;2023-02-28T17:16:39;98476.53;;;1.22;63.54
39051;BME280;24805;55.852;37.644;2023-02-28T17:21:42;98497.13;;;1.35;63.38
39051;BME280;24805;55.852;37.644;2023-02-28T17:26:45;98497.16;;;1.25;63.03
39051;BME280;24805;55.852;37.644;2023-02-28T17:31:47;98487.34;;;1.00;63.12
39051;BME280;24805;55.852;37.644;2023-02-28T17:36:50;98514.91;;;0.75;63.05
39051;BME280;24805;55.852;37.644;2023-02-28T17:41:54;98503.25;;;0.60;62.89
39051;BME280;24805;55.852;37.644;2023-02-28T17:46:57;98524.28;;;0.49;63.54
39051;BME280;24805;55.852;37.644;2023-02-28T17:51:59;98500.38;;;0.44;63.32
39051;BME280;24805;55.852;37.644;2023-02-28T17:57:01;98519.34;;;0.36;63.38
39051;BME280;24805;55.852;37.644;2023-02-28T18:02:03;98511.91;;;0.31;63.91
39051;BME280;24805;55.852;37.644;2023-02-28T18:07:09;98508.63;;;0.29;63.94
39051;BME280;24805;55.852;37.644;2023-02-28T18:12:12;98511.38;;;0.18;64.00
39051;BME280;24805;55.852;37.644;2023-02-28T18:17:15;98512.19;;;0.09;63.77
39051;BME280;24805;55.852;37.644;2023-02-28T18:22:17;98517.94;;;0.03;63.06
39051;BME280;24805;55.852;37.644;2023-02-28T18:27:19;98513.28;;;-0.03;62.73
39051;BME280;24805;55.852;37.644;2023-02-28T18:32:21;98514.09;;;-0.03;62.48
39051;BME280;24805;55.852;37.644;2023-02-28T18:37:23;98541.81;;;-0.02;61.52
39051;BME280;24805;55.852;37.644;2023-02-28T18:42:26;98548.94;;;-0.04;61.30
39051;BME280;24805;55.852;37.644;2023-02-28T18:47:28;98536.88;;;-0.05;58.42
39051;BME280;24805;55.852;37.644;2023-02-28T18:52:31;98539.22;;;-0.02;58.82
39051;BME280;24805;55.852;37.644;2023-02-28T18:57:33;98529.19;;;0.04;57.36
39051;BME280;24805;55.852;37.644;2023-02-28T19:02:35;98543.88;;;0.05;56.78
39051;BME280;24805;55.852;37.644;2023-02-28T19:07:37;98530.69;;;0.06;56.29
39051;BME280;24805;55.852;37.644;2023-02-28T19:12:39;98540.88;;;0.09;55.06
39051;BME280;24805;55.852;37.644;2023-02-28T19:17:43;98541.44;;;0.13;55.37
39051;BME280;24805;55.852;37.644;2023-02-28T19:22:47;98544.72;;;0.15;53.99
39051;BME280;24805;55.852;37.644;2023-02-28T19:27:52;98535.69;;;0.19;53.51
39051;BME280;24805;55.852;37.644;2023-02-28T19:32:54;98535.50;;;0.11;52.89
39051;BME280;24805;55.852;37.644;2023-02-28T19:37:56;98518.78;;;0.13;52.15
39051;BME280;24805;55.852;37.644;2023-02-28T19:43:00;98534.56;;;0.12;51.93
39051;BME280;24805;55.852;37.644;2023-02-28T19:48:05;98538.25;;;-0.01;52.43
39051;BME280;24805;55.852;37.644;2023-02-28T19:53:10;98528.22;;;-0.05;51.50
39051;BME280;24805;55.852;37.644;2023-02-28T19:58:12;98543.19;;;-0.07;52.67
39051;BME280;24805;55.852;37.644;2023-02-28T20:03:15;98543.03;;;-0.06;52.07
39051;BME280;24805;55.852;37.644;2023-02-28T20:08:19;98537.69;;;-0.04;52.66
39051;BME280;24805;55.852;37.644;2023-02-28T20:13:21;98511.59;;;-0.23;53.21
39051;BME280;24805;55.852;37.644;2023-02-28T20:18:28;98527.44;;;-0.36;52.24
39051;BME280;24805;55.852;37.644;2023-02-28T20:23:31;98526.16;;;-0.61;51.08
39051;BME280;24805;55.852;37.644;2023-02-28T20:28:33;98522.22;;;-0.76;50.50
39051;BME280;24805;55.852;37.644;2023-02-28T20:33:35;98521.88;;;-0.92;50.36
39051;BME280;24805;55.852;37.644;2023-02-28T20:38:37;98522.81;;;-1.03;49.91
39051;BME280;24805;55.852;37.644;2023-02-28T20:43:39;98519.81;;;-1.19;49.21
39051;BME280;24805;55.852;37.644;2023-02-28T20:48:42;98537.84;;;-1.27;49.76
39051;BME280;24805;55.852;37.644;2023-02-28T20:53:44;98535.31;;;-1.39;48.73
39051;BME280;24805;55.852;37.644;2023-02-28T20:58:47;98538.31;;;-1.43;48.85
39051;BME280;24805;55.852;37.644;2023-02-28T21:03:58;98531.81;;;-1.49;48.46
39051;BME280;24805;55.852;37.644;2023-02-28T21:09:04;98534.47;;;-1.60;47.71
39051;BME280;24805;55.852;37.644;2023-02-28T21:14:12;98543.59;;;-1.65;48.73
39051;BME280;24805;55.852;37.644;2023-02-28T21:19:15;98540.22;;;-1.77;48.46
39051;BME280;24805;55.852;37.644;2023-02-28T21:24:18;98529.38;;;-1.82;48.30
39051;BME280;24805;55.852;37.644;2023-02-28T21:29:21;98536.84;;;-1.89;48.45
39051;BME280;24805;55.852;37.644;2023-02-28T21:34:23;98536.88;;;-2.00;47.06
39051;BME280;24805;55.852;37.644;2023-02-28T21:39:27;98534.75;;;-2.06;47.44
39051;BME280;24805;55.852;37.644;2023-02-28T21:44:31;98543.75;;;-2.10;47.19
39051;BME280;24805;55.852;37.644;2023-02-28T21:49:35;98545.03;;;-2.16;47.43
39051;BME280;24805;55.852;37.644;2023-02-28T21:54:39;98550.63;;;-2.20;47.84
39051;BME280;24805;55.852;37.644;2023-02-28T21:59:42;98558.19;;;-2.28;47.40
39051;BME280;24805;55.852;37.644;2023-02-28T22:04:44;98554.53;;;-2.37;47.35
39051;BME280;24805;55.852;37.644;2023-02-28T22:09:46;98556.69;;;-2.42;47.25
39051;BME280;24805;55.852;37.644;2023-02-28T22:14:48;98562.94;;;-2.45;47.34
39051;BME280;24805;55.852;37.644;2023-02-28T22:19:50;98547.94;;;-2.52;47.24
39051;BME280;24805;55.852;37.644;2023-02-28T22:24:53;98536.13;;;-2.56;47.58
39051;BME280;24805;55.852;37.644;2023-02-28T22:29:56;98554.41;;;-2.58;47.20
39051;BME280;24805;55.852;37.644;2023-02-28T22:34:58;98549.34;;;-2.59;47.68
39051;BME280;24805;55.852;37.644;2023-02-28T22:40:00;98533.53;;;-2.67;47.70
39051;BME280;24805;55.852;37.644;2023-02-28T22:45:03;98538.38;;;-2.63;47.36
39051;BME280;24805;55.852;37.644;2023-02-28T22:50:06;98532.59;;;-2.66;46.95
39051;BME280;24805;55.852;37.644;2023-02-28T22:55:09;98539.34;;;-2.64;46.99
39051;BME280;24805;55.852;37.644;2023-02-28T23:00:11;98530.94;;;-2.67;47.03
39051;BME280;24805;55.852;37.644;2023-02-28T23:05:17;98525.75;;;-2.67;47.47
39051;BME280;24805;55.852;37.644;2023-02-28T23:10:19;98520.91;;;-2.72;47.22
39051;BME280;24805;55.852;37.644;2023-02-28T23:15:22;98523.84;;;-2.77;47.34
39051;BME280;24805;55.852;37.644;2023-02-28T23:20:24;98527.50;;;-2.79;47.87
39051;BME280;24805;55.852;37.644;2023-02-28T23:25:26;98521.75;;;-2.83;47.20
39051;BME280;24805;55.852;37.644;2023-02-28T23:30:28;98525.75;;;-2.90;46.99
39051;BME280;24805;55.852;37.644;2023-02-28T23:35:31;98526.81;;;-2.92;48.07
39051;BME280;24805;55.852;37.644;2023-02-28T23:40:35;98513.13;;;-2.94;47.44
39051;BME280;24805;55.852;37.644;2023-02-28T23:45:38;98512.28;;;-2.95;47.88
39051;BME280;24805;55.852;37.644;2023-02-28T23:50:40;98516.78;;;-2.97;47.91
39051;BME280;24805;55.852;37.644;2023-02-28T23:55:46;98510.63;;;-2.96;47.49
